sensor_id;sensor_type;location;lat;lon;timestamp;temperature;humidity
56268;DHT22;42175;46.930;9.532;2023-08-30T00:00:15;22.80;54.10
56268;DHT22;42175;46.930;9.532;2023-08-30T00:02:44;22.80;54.10
56268;DHT22;42175;46.930;9.532;2023-08-30T00:05:10;22.80;54.10
56268;DHT22;42175;46.930;9.532;2023-08-30T00:07:36;22.80;54.20
56268;DHT22;42175;46.930;9.532;2023-08-30T00:10:02;22.80;54.10
56268;DHT22;42175;46.930;9.532;2023-08-30T00:12:29;22.80;54.10
56268;DHT22;42175;46.930;9.532;2023-08-30T00:14:55;22.80;54.00
56268;DHT22;42175;46.930;9.532;2023-08-30T00:17:22;22.80;54.20
56268;DHT22;42175;46.930;9.532;2023-08-30T00:19:48;22.80;54.10
56268;DHT22;42175;46.930;9.532;2023-08-30T00:22:14;22.80;54.10
56268;DHT22;42175;46.930;9.532;2023-08-30T00:24:40;22.80;54.10
56268;DHT22;42175;46.930;9.532;2023-08-30T00:27:06;22.80;54.10
56268;DHT22;42175;46.930;9.532;2023-08-30T00:29:32;22.70;54.10
56268;DHT22;42175;46.930;9.532;2023-08-30T00:31:57;22.80;54.10
56268;DHT22;42175;46.930;9.532;2023-08-30T00:34:23;22.80;54.00
56268;DHT22;42175;46.930;9.532;2023-08-30T00:36:49;22.80;54.00
56268;DHT22;42175;46.930;9.532;2023-08-30T00:39:15;22.80;53.90
56268;DHT22;42175;46.930;9.532;2023-08-30T00:41:41;22.80;53.90
56268;DHT22;42175;46.930;9.532;2023-08-30T00:44:06;22.70;53.90
56268;DHT22;42175;46.930;9.532;2023-08-30T00:46:35;22.70;53.90
56268;DHT22;42175;46.930;9.532;2023-08-30T00:49:02;22.70;53.90
56268;DHT22;42175;46.930;9.532;2023-08-30T00:51:28;22.80;53.80
56268;DHT22;42175;46.930;9.532;2023-08-30T00:53:55;22.80;53.80
56268;DHT22;42175;46.930;9.532;2023-08-30T00:56:21;22.80;53.80
56268;DHT22;42175;46.930;9.532;2023-08-30T00:58:49;22.70;53.80
56268;DHT22;42175;46.930;9.532;2023-08-30T01:01:16;22.80;53.80
56268;DHT22;42175;46.930;9.532;2023-08-30T01:03:42;22.80;53.80
56268;DHT22;42175;46.930;9.532;2023-08-30T01:06:08;22.80;53.80
56268;DHT22;42175;46.930;9.532;2023-08-30T01:08:35;22.80;53.70
56268;DHT22;42175;46.930;9.532;2023-08-30T01:11:16;22.80;53.70
56268;DHT22;42175;46.930;9.532;2023-08-30T01:13:55;22.70;53.60
56268;DHT22;42175;46.930;9.532;2023-08-30T01:16:21;22.80;53.70
56268;DHT22;42175;46.930;9.532;2023-08-30T01:18:51;22.80;53.60
56268;DHT22;42175;46.930;9.532;2023-08-30T01:21:32;22.80;53.60
56268;DHT22;42175;46.930;9.532;2023-08-30T01:24:07;22.80;53.50
56268;DHT22;42175;46.930;9.532;2023-08-30T01:26:45;22.80;53.60
56268;DHT22;42175;46.930;9.532;2023-08-30T01:29:16;22.80;53.60
56268;DHT22;42175;46.930;9.532;2023-08-30T01:31:44;22.80;53.60
56268;DHT22;42175;46.930;9.532;2023-08-30T01:34:11;22.80;53.60
56268;DHT22;42175;46.930;9.532;2023-08-30T01:36:39;22.80;53.50
56268;DHT22;42175;46.930;9.532;2023-08-30T01:39:10;22.80;53.50
56268;DHT22;42175;46.930;9.532;2023-08-30T01:41:36;22.80;53.50
56268;DHT22;42175;46.930;9.532;2023-08-30T01:44:05;22.80;53.50
56268;DHT22;42175;46.930;9.532;2023-08-30T01:46:33;22.80;53.40
56268;DHT22;42175;46.930;9.532;2023-08-30T01:49:03;22.80;53.40
56268;DHT22;42175;46.930;9.532;2023-08-30T01:51:30;22.80;53.40
56268;DHT22;42175;46.930;9.532;2023-08-30T01:53:57;22.70;53.40
56268;DHT22;42175;46.930;9.532;2023-08-30T01:56:23;22.80;53.40
56268;DHT22;42175;46.930;9.532;2023-08-30T01:58:49;22.70;53.40
56268;DHT22;42175;46.930;9.532;2023-08-30T02:01:15;22.70;53.40
56268;DHT22;42175;46.930;9.532;2023-08-30T02:03:43;22.80;53.40
56268;DHT22;42175;46.930;9.532;2023-08-30T02:06:17;22.70;53.40
56268;DHT22;42175;46.930;9.532;2023-08-30T02:08:55;22.80;53.50
56268;DHT22;42175;46.930;9.532;2023-08-30T02:11:27;22.80;53.40
56268;DHT22;42175;46.930;9.532;2023-08-30T02:13:56;22.80;53.40
56268;DHT22;42175;46.930;9.532;2023-08-30T02:16:23;22.80;53.40
56268;DHT22;42175;46.930;9.532;2023-08-30T02:18:50;22.80;53.40
56268;DHT22;42175;46.930;9.532;2023-08-30T02:21:16;22.70;53.40
56268;DHT22;42175;46.930;9.532;2023-08-30T02:23:42;22.70;53.40
56268;DHT22;42175;46.930;9.532;2023-08-30T02:26:08;22.80;53.40
56268;DHT22;42175;46.930;9.532;2023-08-30T02:28:34;22.70;53.40
56268;DHT22;42175;46.930;9.532;2023-08-30T02:31:00;22.80;53.40
56268;DHT22;42175;46.930;9.532;2023-08-30T02:33:25;22.80;53.40
56268;DHT22;42175;46.930;9.532;2023-08-30T02:35:51;22.70;53.40
56268;DHT22;42175;46.930;9.532;2023-08-30T02:38:19;22.70;53.50
56268;DHT22;42175;46.930;9.532;2023-08-30T02:40:45;22.70;53.40
56268;DHT22;42175;46.930;9.532;2023-08-30T02:43:10;22.80;53.40
56268;DHT22;42175;46.930;9.532;2023-08-30T02:45:36;22.80;53.40
56268;DHT22;42175;46.930;9.532;2023-08-30T02:48:02;22.80;53.40
56268;DHT22;42175;46.930;9.532;2023-08-30T02:50:28;22.70;53.40
56268;DHT22;42175;46.930;9.532;2023-08-30T02:52:54;22.80;53.50
56268;DHT22;42175;46.930;9.532;2023-08-30T02:55:19;22.80;53.40
56268;DHT22;42175;46.930;9.532;2023-08-30T02:57:45;22.80;53.50
56268;DHT22;42175;46.930;9.532;2023-08-30T03:00:12;22.70;53.40
56268;DHT22;42175;46.930;9.532;2023-08-30T03:02:38;22.70;53.50
56268;DHT22;42175;46.930;9.532;2023-08-30T03:05:04;22.70;53.40
56268;DHT22;42175;46.930;9.532;2023-08-30T03:07:30;22.70;53.40
56268;DHT22;42175;46.930;9.532;2023-08-30T03:09:56;22.70;53.40
56268;DHT22;42175;46.930;9.532;2023-08-30T03:12:22;22.70;53.40
56268;DHT22;42175;46.930;9.532;2023-08-30T03:14:49;22.70;53.30
56268;DHT22;42175;46.930;9.532;2023-08-30T03:17:15;22.80;53.30
56268;DHT22;42175;46.930;9.532;2023-08-30T03:19:40;22.70;53.30
56268;DHT22;42175;46.930;9.532;2023-08-30T03:22:06;22.70;53.20
56268;DHT22;42175;46.930;9.532;2023-08-30T03:24:32;22.70;53.30
56268;DHT22;42175;46.930;9.532;2023-08-30T03:26:58;22.70;53.30
56268;DHT22;42175;46.930;9.532;2023-08-30T03:29:25;22.70;53.30
56268;DHT22;42175;46.930;9.532;2023-08-30T03:31:51;22.70;53.30
56268;DHT22;42175;46.930;9.532;2023-08-30T03:34:16;22.70;53.30
56268;DHT22;42175;46.930;9.532;2023-08-30T03:36:42;22.70;53.30
56268;DHT22;42175;46.930;9.532;2023-08-30T03:39:16;22.70;53.30
56268;DHT22;42175;46.930;9.532;2023-08-30T03:41:41;22.70;53.30
56268;DHT22;42175;46.930;9.532;2023-08-30T03:44:07;22.70;53.30
56268;DHT22;42175;46.930;9.532;2023-08-30T03:46:33;22.70;53.30
56268;DHT22;42175;46.930;9.532;2023-08-30T03:48:59;22.70;53.30
56268;DHT22;42175;46.930;9.532;2023-08-30T03:51:25;22.70;53.40
56268;DHT22;42175;46.930;9.532;2023-08-30T03:53:51;22.70;53.50
56268;DHT22;42175;46.930;9.532;2023-08-30T03:56:17;22.70;53.40
56268;DHT22;42175;46.930;9.532;2023-08-30T03:58:44;22.70;53.40
56268;DHT22;42175;46.930;9.532;2023-08-30T04:01:10;22.70;53.40
56268;DHT22;42175;46.930;9.532;2023-08-30T04:03:36;22.70;53.30
56268;DHT22;42175;46.930;9.532;2023-08-30T04:06:02;22.70;53.30
56268;DHT22;42175;46.930;9.532;2023-08-30T04:08:27;22.70;53.30
56268;DHT22;42175;46.930;9.532;2023-08-30T04:10:53;22.70;53.20
56268;DHT22;42175;46.930;9.532;2023-08-30T04:13:19;22.70;53.20
56268;DHT22;42175;46.930;9.532;2023-08-30T04:15:46;22.70;53.20
56268;DHT22;42175;46.930;9.532;2023-08-30T04:18:12;22.70;53.20
56268;DHT22;42175;46.930;9.532;2023-08-30T04:20:46;22.70;53.20
56268;DHT22;42175;46.930;9.532;2023-08-30T04:23:12;22.70;53.20
56268;DHT22;42175;46.930;9.532;2023-08-30T04:25:38;22.70;53.40
56268;DHT22;42175;46.930;9.532;2023-08-30T04:28:04;22.70;53.30
56268;DHT22;42175;46.930;9.532;2023-08-30T04:30:30;22.70;53.20
56268;DHT22;42175;46.930;9.532;2023-08-30T04:32:56;22.70;53.20
56268;DHT22;42175;46.930;9.532;2023-08-30T04:35:22;22.70;53.20
56268;DHT22;42175;46.930;9.532;2023-08-30T04:37:48;22.70;53.20
56268;DHT22;42175;46.930;9.532;2023-08-30T04:40:16;22.70;53.90
56268;DHT22;42175;46.930;9.532;2023-08-30T04:42:42;22.70;53.40
56268;DHT22;42175;46.930;9.532;2023-08-30T04:45:09;22.70;53.20
56268;DHT22;42175;46.930;9.532;2023-08-30T04:47:35;22.70;53.40
56268;DHT22;42175;46.930;9.532;2023-08-30T04:50:01;22.70;53.40
56268;DHT22;42175;46.930;9.532;2023-08-30T04:52:27;22.70;53.30
56268;DHT22;42175;46.930;9.532;2023-08-30T04:54:53;22.70;53.30
56268;DHT22;42175;46.930;9.532;2023-08-30T04:57:18;22.70;53.30
56268;DHT22;42175;46.930;9.532;2023-08-30T04:59:45;22.70;53.30
56268;DHT22;42175;46.930;9.532;2023-08-30T05:02:11;22.70;53.30
56268;DHT22;42175;46.930;9.532;2023-08-30T05:04:37;22.70;53.30
56268;DHT22;42175;46.930;9.532;2023-08-30T05:07:03;22.70;53.40
56268;DHT22;42175;46.930;9.532;2023-08-30T05:09:30;22.70;53.40
56268;DHT22;42175;46.930;9.532;2023-08-30T05:11:56;22.70;53.30
56268;DHT22;42175;46.930;9.532;2023-08-30T05:14:22;22.60;53.20
56268;DHT22;42175;46.930;9.532;2023-08-30T05:16:49;22.70;53.30
56268;DHT22;42175;46.930;9.532;2023-08-30T05:19:15;22.70;53.30
56268;DHT22;42175;46.930;9.532;2023-08-30T05:21:44;22.70;53.30
56268;DHT22;42175;46.930;9.532;2023-08-30T05:24:10;22.70;53.40
56268;DHT22;42175;46.930;9.532;2023-08-30T05:26:37;22.70;53.60
56268;DHT22;42175;46.930;9.532;2023-08-30T05:29:03;22.60;53.60
56268;DHT22;42175;46.930;9.532;2023-08-30T05:31:29;22.70;53.70
56268;DHT22;42175;46.930;9.532;2023-08-30T05:33:55;22.70;53.80
56268;DHT22;42175;46.930;9.532;2023-08-30T05:36:21;22.70;55.00
56268;DHT22;42175;46.930;9.532;2023-08-30T05:38:47;22.70;54.70
56268;DHT22;42175;46.930;9.532;2023-08-30T05:41:12;22.70;54.90
56268;DHT22;42175;46.930;9.532;2023-08-30T05:43:38;22.70;54.90
56268;DHT22;42175;46.930;9.532;2023-08-30T05:46:04;22.70;54.90
56268;DHT22;42175;46.930;9.532;2023-08-30T05:48:30;22.70;55.10
56268;DHT22;42175;46.930;9.532;2023-08-30T05:50:56;22.70;55.10
56268;DHT22;42175;46.930;9.532;2023-08-30T05:53:23;22.70;55.10
56268;DHT22;42175;46.930;9.532;2023-08-30T05:55:48;22.70;55.10
56268;DHT22;42175;46.930;9.532;2023-08-30T05:58:14;22.70;55.10
56268;DHT22;42175;46.930;9.532;2023-08-30T06:00:41;22.70;55.10
56268;DHT22;42175;46.930;9.532;2023-08-30T06:03:07;22.70;54.90
56268;DHT22;42175;46.930;9.532;2023-08-30T06:05:33;22.70;54.80
56268;DHT22;42175;46.930;9.532;2023-08-30T06:08:00;22.70;54.70
56268;DHT22;42175;46.930;9.532;2023-08-30T06:10:27;22.70;54.70
56268;DHT22;42175;46.930;9.532;2023-08-30T06:12:53;22.70;54.70
56268;DHT22;42175;46.930;9.532;2023-08-30T06:15:19;22.70;54.60
56268;DHT22;42175;46.930;9.532;2023-08-30T06:17:45;22.70;54.50
56268;DHT22;42175;46.930;9.532;2023-08-30T06:20:12;22.70;54.50
56268;DHT22;42175;46.930;9.532;2023-08-30T06:22:38;22.70;54.40
56268;DHT22;42175;46.930;9.532;2023-08-30T06:25:05;22.70;54.30
56268;DHT22;42175;46.930;9.532;2023-08-30T06:27:32;22.70;54.20
56268;DHT22;42175;46.930;9.532;2023-08-30T06:29:58;22.60;54.10
56268;DHT22;42175;46.930;9.532;2023-08-30T06:32:24;22.70;54.10
56268;DHT22;42175;46.930;9.532;2023-08-30T06:34:50;22.60;54.10
56268;DHT22;42175;46.930;9.532;2023-08-30T06:37:15;22.70;54.10
56268;DHT22;42175;46.930;9.532;2023-08-30T06:39:42;22.60;54.10
56268;DHT22;42175;46.930;9.532;2023-08-30T06:42:08;22.60;54.20
56268;DHT22;42175;46.930;9.532;2023-08-30T06:44:34;22.70;54.10
56268;DHT22;42175;46.930;9.532;2023-08-30T06:47:00;22.60;54.10
56268;DHT22;42175;46.930;9.532;2023-08-30T06:49:26;22.60;54.10
56268;DHT22;42175;46.930;9.532;2023-08-30T06:51:51;22.70;54.70
56268;DHT22;42175;46.930;9.532;2023-08-30T06:54:17;22.60;54.10
56268;DHT22;42175;46.930;9.532;2023-08-30T06:56:57;22.70;54.20
56268;DHT22;42175;46.930;9.532;2023-08-30T06:59:23;22.60;54.20
56268;DHT22;42175;46.930;9.532;2023-08-30T07:01:49;22.60;54.30
56268;DHT22;42175;46.930;9.532;2023-08-30T07:04:15;22.60;54.30
56268;DHT22;42175;46.930;9.532;2023-08-30T07:06:41;22.60;54.30
56268;DHT22;42175;46.930;9.532;2023-08-30T07:09:07;22.60;54.40
56268;DHT22;42175;46.930;9.532;2023-08-30T07:11:33;22.60;54.40
56268;DHT22;42175;46.930;9.532;2023-08-30T07:13:59;22.70;54.50
56268;DHT22;42175;46.930;9.532;2023-08-30T07:16:25;22.60;54.30
56268;DHT22;42175;46.930;9.532;2023-08-30T07:18:51;22.60;54.40
56268;DHT22;42175;46.930;9.532;2023-08-30T07:21:17;22.60;54.40
56268;DHT22;42175;46.930;9.532;2023-08-30T07:23:43;22.60;54.30
56268;DHT22;42175;46.930;9.532;2023-08-30T07:26:09;22.60;54.20
56268;DHT22;42175;46.930;9.532;2023-08-30T07:28:35;22.60;54.20
56268;DHT22;42175;46.930;9.532;2023-08-30T07:31:04;22.60;54.20
56268;DHT22;42175;46.930;9.532;2023-08-30T07:33:30;22.60;54.10
56268;DHT22;42175;46.930;9.532;2023-08-30T07:35:56;22.60;54.00
56268;DHT22;42175;46.930;9.532;2023-08-30T07:38:22;22.60;53.90
56268;DHT22;42175;46.930;9.532;2023-08-30T07:40:47;22.60;53.90
56268;DHT22;42175;46.930;9.532;2023-08-30T07:43:13;22.60;53.90
56268;DHT22;42175;46.930;9.532;2023-08-30T07:45:39;22.60;53.90
56268;DHT22;42175;46.930;9.532;2023-08-30T07:48:05;22.60;53.90
56268;DHT22;42175;46.930;9.532;2023-08-30T07:50:31;22.60;54.00
56268;DHT22;42175;46.930;9.532;2023-08-30T07:52:57;22.60;54.20
56268;DHT22;42175;46.930;9.532;2023-08-30T07:55:22;22.60;54.20
56268;DHT22;42175;46.930;9.532;2023-08-30T07:57:48;22.60;54.30
56268;DHT22;42175;46.930;9.532;2023-08-30T08:00:14;22.60;54.20
56268;DHT22;42175;46.930;9.532;2023-08-30T08:02:41;22.60;54.20
56268;DHT22;42175;46.930;9.532;2023-08-30T08:05:07;22.60;54.20
56268;DHT22;42175;46.930;9.532;2023-08-30T08:07:33;22.60;54.20
56268;DHT22;42175;46.930;9.532;2023-08-30T08:09:59;22.60;54.20
56268;DHT22;42175;46.930;9.532;2023-08-30T08:12:26;22.60;54.30
56268;DHT22;42175;46.930;9.532;2023-08-30T08:14:52;22.60;54.40
56268;DHT22;42175;46.930;9.532;2023-08-30T08:17:18;22.60;54.60
56268;DHT22;42175;46.930;9.532;2023-08-30T08:19:45;22.60;54.50
56268;DHT22;42175;46.930;9.532;2023-08-30T08:22:11;22.60;54.40
56268;DHT22;42175;46.930;9.532;2023-08-30T08:24:36;22.60;54.50
56268;DHT22;42175;46.930;9.532;2023-08-30T08:27:02;22.60;54.60
56268;DHT22;42175;46.930;9.532;2023-08-30T08:29:28;22.60;54.70
56268;DHT22;42175;46.930;9.532;2023-08-30T08:31:54;22.70;54.80
56268;DHT22;42175;46.930;9.532;2023-08-30T08:34:20;22.70;54.90
56268;DHT22;42175;46.930;9.532;2023-08-30T08:36:46;22.70;54.90
56268;DHT22;42175;46.930;9.532;2023-08-30T08:39:12;22.70;55.00
56268;DHT22;42175;46.930;9.532;2023-08-30T08:41:43;22.70;55.10
56268;DHT22;42175;46.930;9.532;2023-08-30T08:44:10;22.80;55.10
56268;DHT22;42175;46.930;9.532;2023-08-30T08:46:38;22.80;55.10
56268;DHT22;42175;46.930;9.532;2023-08-30T08:49:17;22.80;55.10
56268;DHT22;42175;46.930;9.532;2023-08-30T08:51:44;22.80;55.10
56268;DHT22;42175;46.930;9.532;2023-08-30T08:54:10;22.80;55.10
56268;DHT22;42175;46.930;9.532;2023-08-30T08:56:37;22.90;55.20
56268;DHT22;42175;46.930;9.532;2023-08-30T08:59:04;22.90;55.20
56268;DHT22;42175;46.930;9.532;2023-08-30T09:01:34;22.90;55.30
56268;DHT22;42175;46.930;9.532;2023-08-30T09:04:05;23.00;55.40
56268;DHT22;42175;46.930;9.532;2023-08-30T09:06:32;22.90;55.50
56268;DHT22;42175;46.930;9.532;2023-08-30T09:08:58;23.00;55.70
56268;DHT22;42175;46.930;9.532;2023-08-30T09:11:24;23.00;55.70
56268;DHT22;42175;46.930;9.532;2023-08-30T09:13:49;23.00;56.20
56268;DHT22;42175;46.930;9.532;2023-08-30T09:16:15;23.00;56.30
56268;DHT22;42175;46.930;9.532;2023-08-30T09:18:42;23.00;56.40
56268;DHT22;42175;46.930;9.532;2023-08-30T09:21:09;23.00;56.70
56268;DHT22;42175;46.930;9.532;2023-08-30T09:23:35;23.00;56.80
56268;DHT22;42175;46.930;9.532;2023-08-30T09:26:01;23.00;56.70
56268;DHT22;42175;46.930;9.532;2023-08-30T09:28:28;23.00;56.60
56268;DHT22;42175;46.930;9.532;2023-08-30T09:30:54;23.00;56.60
56268;DHT22;42175;46.930;9.532;2023-08-30T09:33:23;23.00;56.50
56268;DHT22;42175;46.930;9.532;2023-08-30T09:35:49;23.00;56.10
56268;DHT22;42175;46.930;9.532;2023-08-30T09:38:19;22.80;52.20
56268;DHT22;42175;46.930;9.532;2023-08-30T09:40:45;22.70;51.30
56268;DHT22;42175;46.930;9.532;2023-08-30T09:43:12;22.60;52.40
56268;DHT22;42175;46.930;9.532;2023-08-30T09:45:38;22.60;50.90
56268;DHT22;42175;46.930;9.532;2023-08-30T09:48:05;22.50;50.60
56268;DHT22;42175;46.930;9.532;2023-08-30T09:50:34;22.50;51.30
56268;DHT22;42175;46.930;9.532;2023-08-30T09:53:08;22.50;51.60
56268;DHT22;42175;46.930;9.532;2023-08-30T09:55:37;22.50;51.90
56268;DHT22;42175;46.930;9.532;2023-08-30T09:58:04;22.50;51.80
56268;DHT22;42175;46.930;9.532;2023-08-30T10:00:33;22.40;51.50
56268;DHT22;42175;46.930;9.532;2023-08-30T10:02:59;22.40;51.90
56268;DHT22;42175;46.930;9.532;2023-08-30T10:05:29;22.40;52.10
56268;DHT22;42175;46.930;9.532;2023-08-30T10:07:57;22.40;52.40
56268;DHT22;42175;46.930;9.532;2023-08-30T10:10:23;22.40;52.00
56268;DHT22;42175;46.930;9.532;2023-08-30T10:12:49;22.40;51.50
56268;DHT22;42175;46.930;9.532;2023-08-30T10:15:15;22.40;51.90
56268;DHT22;42175;46.930;9.532;2023-08-30T10:17:45;22.40;51.90
56268;DHT22;42175;46.930;9.532;2023-08-30T10:20:11;22.40;52.00
56268;DHT22;42175;46.930;9.532;2023-08-30T10:22:41;22.40;51.80
56268;DHT22;42175;46.930;9.532;2023-08-30T10:25:13;22.40;51.20
56268;DHT22;42175;46.930;9.532;2023-08-30T10:27:45;22.40;50.80
56268;DHT22;42175;46.930;9.532;2023-08-30T10:30:12;22.40;50.50
56268;DHT22;42175;46.930;9.532;2023-08-30T10:32:40;22.40;50.40
56268;DHT22;42175;46.930;9.532;2023-08-30T10:35:05;22.30;50.10
56268;DHT22;42175;46.930;9.532;2023-08-30T10:37:31;22.30;50.00
56268;DHT22;42175;46.930;9.532;2023-08-30T10:40:00;22.30;49.80
56268;DHT22;42175;46.930;9.532;2023-08-30T10:42:29;22.30;49.70
56268;DHT22;42175;46.930;9.532;2023-08-30T10:45:07;22.30;49.50
56268;DHT22;42175;46.930;9.532;2023-08-30T10:47:37;22.20;49.60
56268;DHT22;42175;46.930;9.532;2023-08-30T10:50:12;22.20;50.20
56268;DHT22;42175;46.930;9.532;2023-08-30T10:52:38;22.20;49.50
56268;DHT22;42175;46.930;9.532;2023-08-30T10:55:14;22.20;50.30
56268;DHT22;42175;46.930;9.532;2023-08-30T10:57:45;22.20;50.10
56268;DHT22;42175;46.930;9.532;2023-08-30T11:00:20;22.20;50.20
56268;DHT22;42175;46.930;9.532;2023-08-30T11:02:48;22.20;50.90
56268;DHT22;42175;46.930;9.532;2023-08-30T11:05:20;22.20;51.30
56268;DHT22;42175;46.930;9.532;2023-08-30T11:07:46;22.30;51.20
56268;DHT22;42175;46.930;9.532;2023-08-30T11:10:14;22.30;51.00
56268;DHT22;42175;46.930;9.532;2023-08-30T11:12:41;22.20;50.90
56268;DHT22;42175;46.930;9.532;2023-08-30T11:15:08;22.20;51.00
56268;DHT22;42175;46.930;9.532;2023-08-30T11:17:34;22.20;51.00
56268;DHT22;42175;46.930;9.532;2023-08-30T11:20:08;22.20;51.00
56268;DHT22;42175;46.930;9.532;2023-08-30T11:22:39;22.30;51.10
56268;DHT22;42175;46.930;9.532;2023-08-30T11:25:07;22.30;51.00
56268;DHT22;42175;46.930;9.532;2023-08-30T11:27:33;22.30;51.00
56268;DHT22;42175;46.930;9.532;2023-08-30T11:30:00;22.30;51.20
56268;DHT22;42175;46.930;9.532;2023-08-30T11:32:26;22.30;51.40
56268;DHT22;42175;46.930;9.532;2023-08-30T11:34:58;22.20;51.00
56268;DHT22;42175;46.930;9.532;2023-08-30T11:37:26;22.20;50.70
56268;DHT22;42175;46.930;9.532;2023-08-30T11:39:53;22.10;51.30
56268;DHT22;42175;46.930;9.532;2023-08-30T11:42:20;22.10;51.20
56268;DHT22;42175;46.930;9.532;2023-08-30T11:44:46;22.10;51.20
56268;DHT22;42175;46.930;9.532;2023-08-30T11:47:27;22.10;50.90
56268;DHT22;42175;46.930;9.532;2023-08-30T11:49:54;22.10;50.70
56268;DHT22;42175;46.930;9.532;2023-08-30T11:52:20;22.10;51.30
56268;DHT22;42175;46.930;9.532;2023-08-30T11:54:48;22.00;51.30
56268;DHT22;42175;46.930;9.532;2023-08-30T11:57:15;21.80;51.80
56268;DHT22;42175;46.930;9.532;2023-08-30T11:59:40;21.90;51.60
56268;DHT22;42175;46.930;9.532;2023-08-30T12:02:11;21.80;51.00
56268;DHT22;42175;46.930;9.532;2023-08-30T12:04:43;21.90;51.40
56268;DHT22;42175;46.930;9.532;2023-08-30T12:07:20;22.00;51.60
56268;DHT22;42175;46.930;9.532;2023-08-30T12:09:46;22.00;51.90
56268;DHT22;42175;46.930;9.532;2023-08-30T12:12:12;22.10;52.00
56268;DHT22;42175;46.930;9.532;2023-08-30T12:14:38;22.20;52.20
56268;DHT22;42175;46.930;9.532;2023-08-30T12:17:04;22.20;52.30
56268;DHT22;42175;46.930;9.532;2023-08-30T12:19:31;22.20;52.60
56268;DHT22;42175;46.930;9.532;2023-08-30T12:22:03;22.20;52.50
56268;DHT22;42175;46.930;9.532;2023-08-30T12:24:41;22.30;52.90
56268;DHT22;42175;46.930;9.532;2023-08-30T12:27:07;22.30;52.70
56268;DHT22;42175;46.930;9.532;2023-08-30T12:29:32;22.30;52.90
56268;DHT22;42175;46.930;9.532;2023-08-30T12:31:58;22.30;53.10
56268;DHT22;42175;46.930;9.532;2023-08-30T12:34:24;22.30;53.10
56268;DHT22;42175;46.930;9.532;2023-08-30T12:36:49;22.40;53.30
56268;DHT22;42175;46.930;9.532;2023-08-30T12:39:15;22.40;54.10
56268;DHT22;42175;46.930;9.532;2023-08-30T12:41:42;22.40;53.50
56268;DHT22;42175;46.930;9.532;2023-08-30T12:44:08;22.50;53.60
56268;DHT22;42175;46.930;9.532;2023-08-30T12:46:34;22.50;53.80
56268;DHT22;42175;46.930;9.532;2023-08-30T12:48:59;22.50;54.40
56268;DHT22;42175;46.930;9.532;2023-08-30T12:51:25;22.50;54.40
56268;DHT22;42175;46.930;9.532;2023-08-30T12:53:51;22.50;54.30
56268;DHT22;42175;46.930;9.532;2023-08-30T12:56:16;22.40;53.80
56268;DHT22;42175;46.930;9.532;2023-08-30T12:58:42;22.40;53.80
56268;DHT22;42175;46.930;9.532;2023-08-30T13:01:08;22.40;53.90
56268;DHT22;42175;46.930;9.532;2023-08-30T13:03:33;22.50;54.40
56268;DHT22;42175;46.930;9.532;2023-08-30T13:05:59;22.50;54.50
56268;DHT22;42175;46.930;9.532;2023-08-30T13:08:25;22.40;54.50
56268;DHT22;42175;46.930;9.532;2023-08-30T13:10:50;22.50;54.80
56268;DHT22;42175;46.930;9.532;2023-08-30T13:13:16;22.50;54.40
56268;DHT22;42175;46.930;9.532;2023-08-30T13:15:42;22.50;54.40
56268;DHT22;42175;46.930;9.532;2023-08-30T13:18:08;22.50;54.60
56268;DHT22;42175;46.930;9.532;2023-08-30T13:20:38;22.50;54.60
56268;DHT22;42175;46.930;9.532;2023-08-30T13:23:04;22.50;54.60
56268;DHT22;42175;46.930;9.532;2023-08-30T13:25:30;22.60;54.70
56268;DHT22;42175;46.930;9.532;2023-08-30T13:27:56;22.60;54.50
56268;DHT22;42175;46.930;9.532;2023-08-30T13:30:21;22.50;54.60
56268;DHT22;42175;46.930;9.532;2023-08-30T13:32:47;22.50;54.40
56268;DHT22;42175;46.930;9.532;2023-08-30T13:35:13;22.50;54.40
56268;DHT22;42175;46.930;9.532;2023-08-30T13:37:38;22.50;54.20
56268;DHT22;42175;46.930;9.532;2023-08-30T13:40:05;22.50;54.00
56268;DHT22;42175;46.930;9.532;2023-08-30T13:42:32;22.50;54.10
56268;DHT22;42175;46.930;9.532;2023-08-30T13:44:58;22.50;54.10
56268;DHT22;42175;46.930;9.532;2023-08-30T13:47:24;22.60;54.70
56268;DHT22;42175;46.930;9.532;2023-08-30T13:49:49;22.60;54.90
56268;DHT22;42175;46.930;9.532;2023-08-30T13:52:15;22.60;54.90
56268;DHT22;42175;46.930;9.532;2023-08-30T13:54:41;22.60;54.90
56268;DHT22;42175;46.930;9.532;2023-08-30T13:57:07;22.60;55.00
56268;DHT22;42175;46.930;9.532;2023-08-30T13:59:32;22.60;54.90
56268;DHT22;42175;46.930;9.532;2023-08-30T14:02:01;22.60;55.00
56268;DHT22;42175;46.930;9.532;2023-08-30T14:04:29;22.60;54.90
56268;DHT22;42175;46.930;9.532;2023-08-30T14:06:58;22.70;55.10
56268;DHT22;42175;46.930;9.532;2023-08-30T14:09:24;22.60;53.10
56268;DHT22;42175;46.930;9.532;2023-08-30T14:11:49;22.60;52.60
56268;DHT22;42175;46.930;9.532;2023-08-30T14:14:15;22.40;52.40
56268;DHT22;42175;46.930;9.532;2023-08-30T14:16:41;22.40;53.10
56268;DHT22;42175;46.930;9.532;2023-08-30T14:19:07;22.30;52.30
56268;DHT22;42175;46.930;9.532;2023-08-30T14:21:33;22.30;52.50
56268;DHT22;42175;46.930;9.532;2023-08-30T14:23:59;22.30;52.40
56268;DHT22;42175;46.930;9.532;2023-08-30T14:26:25;22.30;52.30
56268;DHT22;42175;46.930;9.532;2023-08-30T14:28:51;22.30;51.80
56268;DHT22;42175;46.930;9.532;2023-08-30T14:31:17;22.20;52.50
56268;DHT22;42175;46.930;9.532;2023-08-30T14:33:44;22.20;52.80
56268;DHT22;42175;46.930;9.532;2023-08-30T14:36:13;22.20;53.60
56268;DHT22;42175;46.930;9.532;2023-08-30T14:38:41;22.10;54.90
56268;DHT22;42175;46.930;9.532;2023-08-30T14:41:06;22.10;53.40
56268;DHT22;42175;46.930;9.532;2023-08-30T14:43:32;22.10;53.40
56268;DHT22;42175;46.930;9.532;2023-08-30T14:46:06;22.00;53.90
56268;DHT22;42175;46.930;9.532;2023-08-30T14:48:32;22.00;54.70
56268;DHT22;42175;46.930;9.532;2023-08-30T14:51:01;22.00;54.70
56268;DHT22;42175;46.930;9.532;2023-08-30T14:53:27;21.90;53.70
56268;DHT22;42175;46.930;9.532;2023-08-30T14:55:54;21.90;53.80
56268;DHT22;42175;46.930;9.532;2023-08-30T14:58:21;21.90;54.00
56268;DHT22;42175;46.930;9.532;2023-08-30T15:00:50;21.90;54.80
56268;DHT22;42175;46.930;9.532;2023-08-30T15:03:16;21.90;53.70
56268;DHT22;42175;46.930;9.532;2023-08-30T15:05:42;21.90;52.30
56268;DHT22;42175;46.930;9.532;2023-08-30T15:08:08;21.90;53.00
56268;DHT22;42175;46.930;9.532;2023-08-30T15:10:33;21.90;53.00
56268;DHT22;42175;46.930;9.532;2023-08-30T15:12:59;22.00;53.90
56268;DHT22;42175;46.930;9.532;2023-08-30T15:15:25;22.10;54.40
56268;DHT22;42175;46.930;9.532;2023-08-30T15:17:51;22.20;53.90
56268;DHT22;42175;46.930;9.532;2023-08-30T15:20:16;22.20;53.90
56268;DHT22;42175;46.930;9.532;2023-08-30T15:22:42;22.30;53.80
56268;DHT22;42175;46.930;9.532;2023-08-30T15:25:08;22.30;54.00
56268;DHT22;42175;46.930;9.532;2023-08-30T15:27:34;22.30;54.10